Time;durP1;ratioP1;P1;durP2;ratioP2;P2;SDS_P1;SDS_P2;PMS_P1;PMS_P2;Temp;Humidity;BMP_temperature;BMP_pressure;BME280_temperature;BME280_humidity;BME280_pressure;Samples;Min_cycle;Max_cycle;Signal;HPM_P1;HPM_P2
2022/05/08 00:02:13;;;;;;;;;23.00;22.50;;;;;18.84;52.14;101965.50;5079768;28;46005;-72
2022/05/08 00:04:38;;;;;;;;;21.00;19.25;;;;;18.85;52.25;101960.03;5071381;28;45389;-72
2022/05/08 00:07:04;;;;;;;;;19.50;18.50;;;;;18.86;52.24;101974.44;5082772;28;45485;-72
2022/05/08 00:09:29;;;;;;;;;16.25;16.25;;;;;18.81;52.18;101971.94;5082657;28;46380;-73
2022/05/08 00:11:55;;;;;;;;;22.25;17.50;;;;;18.78;52.14;101968.50;5070894;28;45290;-73
2022/05/08 00:14:20;;;;;;;;;17.00;17.00;;;;;18.71;52.39;101954.38;5068026;28;45317;-72
2022/05/08 00:16:46;;;;;;;;;21.25;18.00;;;;;18.75;51.81;101969.50;5070480;28;45407;-73
2022/05/08 00:19:11;;;;;;;;;18.00;18.00;;;;;18.73;52.08;101970.50;5062050;28;45538;-72
2022/05/08 00:21:39;;;;;;;;;12.50;12.50;;;;;18.70;52.13;101961.59;5062424;28;45290;-73
2022/05/08 00:24:04;;;;;;;;;21.75;19.75;;;;;18.73;52.03;101963.31;5067917;28;45244;-72
2022/05/08 00:26:30;;;;;;;;;21.25;20.25;;;;;18.66;52.10;101951.00;5068452;28;45351;-73
2022/05/08 00:28:55;;;;;;;;;20.75;18.00;;;;;18.68;52.44;101952.69;5061954;28;46178;-72
2022/05/08 00:31:21;;;;;;;;;21.25;21.25;;;;;18.63;52.35;101951.16;5077610;28;45363;-72
2022/05/08 00:33:46;;;;;;;;;19.25;17.25;;;;;18.66;52.34;101953.69;5065406;28;45240;-72
2022/05/08 00:36:12;;;;;;;;;18.75;18.50;;;;;18.62;52.71;101960.22;5062290;28;45212;-73
2022/05/08 00:38:37;;;;;;;;;19.75;19.75;;;;;18.55;52.51;101956.06;5077522;28;48342;-72
2022/05/08 00:41:03;;;;;;;;;17.00;15.75;;;;;18.49;52.83;101960.81;5060975;28;45483;-73
2022/05/08 00:43:32;;;;;;;;;19.00;17.00;;;;;18.45;52.88;101959.16;5065546;28;45402;-72
2022/05/08 00:46:06;;;;;;;;;21.00;17.75;;;;;18.41;53.09;101959.38;5082606;28;45241;-73
2022/05/08 00:48:32;;;;;;;;;19.50;18.75;;;;;18.37;52.92;101969.44;5061984;28;46296;-72
2022/05/08 00:51:00;;;;;;;;;17.75;17.75;;;;;18.37;53.41;101957.78;5062193;28;45304;-72
2022/05/08 00:53:30;;;;;;;;;18.25;16.25;;;;;18.36;52.78;101967.72;5064779;28;45454;-73
2022/05/08 00:55:56;;;;;;;;;16.75;16.75;;;;;18.40;53.39;101957.63;5061962;28;45475;-72
2022/05/08 00:58:22;;;;;;;;;15.00;14.00;;;;;18.41;52.79;101962.06;5067785;28;46972;-72
2022/05/08 01:00:48;;;;;;;;;18.25;16.75;;;;;18.40;52.71;101963.91;5080791;27;45272;-73
2022/05/08 01:03:14;;;;;;;;;19.25;18.25;;;;;18.33;53.35;101959.75;5065225;28;45239;-72
2022/05/08 01:05:42;;;;;;;;;18.75;17.00;;;;;18.35;53.00;101970.50;5074957;28;45222;-72
2022/05/08 01:08:09;;;;;;;;;17.00;17.00;;;;;18.33;53.44;101975.97;5075964;28;46350;-72
2022/05/08 01:10:36;;;;;;;;;17.25;16.50;;;;;18.29;53.24;101974.31;5081651;28;45532;-72
2022/05/08 01:13:03;;;;;;;;;16.50;16.50;;;;;18.20;53.48;101956.72;5060624;28;45321;-72
2022/05/08 01:15:29;;;;;;;;;17.75;17.75;;;;;18.27;53.21;101977.09;5061674;28;45324;-72
2022/05/08 01:17:54;;;;;;;;;18.75;18.75;;;;;18.17;53.29;101958.69;5076850;28;46057;-73
2022/05/08 01:20:20;;;;;;;;;20.75;20.25;;;;;18.21;53.51;101973.78;5060262;28;45260;-73
2022/05/08 01:22:45;;;;;;;;;22.00;19.00;;;;;18.14;53.58;101956.97;5062806;28;45423;-72
2022/05/08 01:25:10;;;;;;;;;17.25;17.25;;;;;17.95;53.55;101930.78;5065551;28;45426;-72
2022/05/08 01:27:36;;;;;;;;;19.00;18.25;;;;;18.18;53.42;101963.16;5060121;28;45988;-73
2022/05/08 01:30:01;;;;;;;;;22.00;18.00;;;;;18.15;53.86;101956.03;5065389;27;45225;-72
2022/05/08 01:32:27;;;;;;;;;18.50;17.75;;;;;18.05;53.46;101955.56;5075655;28;45303;-73
2022/05/08 01:34:52;;;;;;;;;24.50;21.50;;;;;18.03;53.56;101957.47;5061213;28;45205;-72
2022/05/08 01:37:18;;;;;;;;;18.75;16.00;;;;;17.94;53.64;101952.47;5067032;28;46088;-72
2022/05/08 01:39:43;;;;;;;;;16.75;16.75;;;;;17.99;53.79;101957.66;5081624;28;45396;-72
2022/05/08 01:42:09;;;;;;;;;20.00;19.00;;;;;17.98;54.23;101955.94;5061812;28;45424;-72
2022/05/08 01:44:34;;;;;;;;;20.25;19.00;;;;;17.95;54.20;101960.50;5061271;28;45476;-72
2022/05/08 01:49:43;;;;;;;;;17.50;17.50;;;;;17.96;53.90;101954.16;5063213;28;45327;-72
2022/05/08 01:52:09;;;;;;;;;19.50;18.50;;;;;17.89;54.25;101949.09;5079664;28;45377;-73
2022/05/08 01:54:35;;;;;;;;;18.50;16.75;;;;;17.99;53.82;101968.47;5072307;28;45466;-72
2022/05/08 01:57:01;;;;;;;;;14.75;14.75;;;;;17.85;53.67;101950.16;5060915;28;46026;-72
2022/05/08 01:59:26;;;;;;;;;19.75;19.75;;;;;17.91;53.85;101966.13;5063563;28;45331;-72
2022/05/08 02:01:52;;;;;;;;;23.25;20.50;;;;;17.83;53.95;101954.75;5081538;28;45417;-72
2022/05/08 02:04:18;;;;;;;;;19.75;17.75;;;;;17.78;54.06;101961.22;5063310;28;45469;-72
2022/05/08 02:06:45;;;;;;;;;22.75;21.50;;;;;17.80;53.74;101963.84;5063459;28;45327;-72
2022/05/08 02:09:11;;;;;;;;;16.75;16.75;;;;;17.71;54.57;101959.72;5080970;28;45438;-72
2022/05/08 02:11:37;;;;;;;;;18.75;18.50;;;;;17.76;54.44;101957.72;5071524;28;45173;-72
2022/05/08 02:14:02;;;;;;;;;16.25;15.75;;;;;17.76;54.55;101959.53;5059878;28;45285;-72
2022/05/08 02:16:29;;;;;;;;;20.50;20.00;;;;;17.74;54.31;101956.91;5069997;28;46236;-72
2022/05/08 02:18:55;;;;;;;;;18.00;16.25;;;;;17.65;54.54;101943.78;5077527;28;45521;-72
2022/05/08 02:21:20;;;;;;;;;24.75;23.00;;;;;17.60;54.53;101941.28;5060846;28;45267;-72
2022/05/08 02:23:46;;;;;;;;;23.25;21.50;;;;;17.62;54.67;101959.25;5063393;28;45408;-72
2022/05/08 02:26:12;;;;;;;;;20.50;20.00;;;;;17.62;54.74;101953.84;5070665;28;45306;-72
2022/05/08 02:28:38;;;;;;;;;22.50;21.50;;;;;17.65;54.81;101964.50;5060351;27;45326;-72
2022/05/08 02:31:04;;;;;;;;;21.00;18.25;;;;;17.59;54.62;101949.44;5072494;28;45366;-72
2022/05/08 02:33:29;;;;;;;;;24.75;20.25;;;;;17.62;54.60;101968.22;5065539;28;45317;-72
2022/05/08 02:35:54;;;;;;;;;22.50;19.00;;;;;17.61;54.58;101969.16;5060327;28;46257;-72
2022/05/08 02:38:20;;;;;;;;;24.50;23.25;;;;;17.55;54.74;101962.19;5060052;28;45311;-72
2022/05/08 02:40:45;;;;;;;;;22.50;21.00;;;;;17.54;55.15;101973.94;5060493;28;45240;-72
2022/05/08 02:43:10;;;;;;;;;29.00;22.25;;;;;17.54;54.96;101976.66;5060292;28;45279;-72
2022/05/08 02:45:36;;;;;;;;;20.75;20.00;;;;;17.47;54.90;101966.16;5060266;28;46297;-72
2022/05/08 02:48:01;;;;;;;;;22.75;21.75;;;;;17.41;54.90;101968.19;5059771;28;45219;-72
2022/05/08 02:50:26;;;;;;;;;28.75;24.50;;;;;17.33;55.14;101956.81;5060435;28;45310;-72
2022/05/08 02:52:52;;;;;;;;;23.75;21.75;;;;;17.39;55.43;101977.25;5072151;28;45508;-72
2022/05/08 03:00:47;;;;;;;;;25.00;24.25;;;;;17.09;55.36;101976.69;5060404;28;45366;-72
2022/05/08 03:03:13;;;;;;;;;20.75;20.00;;;;;17.10;55.94;101991.97;5063548;27;45227;-73
2022/05/08 03:05:43;;;;;;;;;22.75;21.75;;;;;17.08;55.77;101992.00;5073433;28;47111;-73
2022/05/08 03:08:09;;;;;;;;;23.75;21.00;;;;;17.08;55.90;101991.16;5074348;28;45362;-72
2022/05/08 03:13:19;;;;;;;;;27.50;24.00;;;;;17.08;56.02;101991.16;5059865;28;45174;-72
2022/05/08 03:15:44;;;;;;;;;27.50;26.00;;;;;17.05;56.02;101997.53;5058376;28;47095;-73
2022/05/08 03:18:10;;;;;;;;;27.50;25.25;;;;;17.04;55.87;101998.50;5059546;28;45330;-72
2022/05/08 03:20:35;;;;;;;;;28.25;24.00;;;;;17.02;56.16;101986.84;5059953;28;45170;-72
2022/05/08 03:23:01;;;;;;;;;26.50;26.50;;;;;17.01;55.90;101988.69;5058032;28;45363;-72
2022/05/08 03:25:26;;;;;;;;;29.00;29.00;;;;;16.91;56.13;101968.41;5075280;28;46149;-72
2022/05/08 03:27:53;;;;;;;;;27.75;26.75;;;;;17.03;56.07;101988.63;5063428;28;45216;-72
2022/05/08 03:30:20;;;;;;;;;33.50;30.50;;;;;17.01;56.23;101990.50;5069736;27;45327;-72
2022/05/08 03:32:45;;;;;;;;;34.50;32.25;;;;;16.96;56.33;101995.22;5073615;28;45499;-72
2022/05/08 03:35:11;;;;;;;;;39.50;34.75;;;;;16.88;56.46;101989.25;5063065;28;45442;-72
2022/05/08 03:37:36;;;;;;;;;44.00;35.75;;;;;16.62;56.64;101972.19;5062971;28;45318;-72
2022/05/08 03:40:02;;;;;;;;;35.75;32.25;;;;;16.61;56.92;101984.81;5063224;28;45299;-72
2022/05/08 03:42:27;;;;;;;;;36.00;32.00;;;;;16.62;56.82;101978.47;5063358;28;45359;-72
2022/05/08 03:44:54;;;;;;;;;40.50;34.25;;;;;16.67;57.35;101994.47;5062925;28;46115;-72
2022/05/08 03:47:20;;;;;;;;;42.00;35.50;;;;;16.63;57.20;101996.41;5063200;28;45666;-72
2022/05/08 03:49:45;;;;;;;;;43.50;37.50;;;;;16.60;57.07;101985.72;5062854;28;45375;-72
2022/05/08 03:52:12;;;;;;;;;37.00;32.75;;;;;16.64;57.14;101987.38;5069507;28;45483;-72
2022/05/08 03:54:38;;;;;;;;;39.00;34.50;;;;;16.59;57.30;101994.78;5066784;28;47537;-72
2022/05/08 03:57:04;;;;;;;;;35.00;32.50;;;;;16.58;57.48;101998.38;5062896;28;45469;-72
2022/05/08 03:59:30;;;;;;;;;46.50;37.50;;;;;16.60;57.49;101993.81;5062788;28;45270;-72
2022/05/08 04:01:56;;;;;;;;;37.25;32.75;;;;;16.46;57.58;101990.78;5062777;28;45402;-72
2022/05/08 04:04:22;;;;;;;;;45.00;37.00;;;;;16.50;57.43;101995.09;5068946;28;45451;-72
2022/05/08 04:06:47;;;;;;;;;43.50;36.00;;;;;16.46;57.75;101990.78;5075170;28;45299;-72
2022/05/08 04:09:12;;;;;;;;;43.25;37.25;;;;;16.44;57.83;101982.75;5082959;28;45428;-72
2022/05/08 04:11:38;;;;;;;;;45.00;36.25;;;;;16.41;57.76;101977.47;5083100;28;45307;-72
2022/05/08 04:14:03;;;;;;;;;46.50;37.50;;;;;16.44;57.78;101985.44;5080169;28;45320;-72
2022/05/08 04:16:28;;;;;;;;;41.25;34.50;;;;;16.54;57.76;101999.47;5062574;28;45213;-72
2022/05/08 04:18:54;;;;;;;;;39.25;34.75;;;;;16.48;57.76;101989.75;5062444;28;45220;-72
2022/05/08 04:21:19;;;;;;;;;40.00;35.25;;;;;16.48;57.89;101997.84;5061911;28;45249;-72
2022/05/08 04:26:30;;;;;;;;;45.75;36.75;;;;;16.37;58.08;101991.09;5062262;28;45563;-72
2022/05/08 04:28:57;;;;;;;;;48.25;39.75;;;;;16.36;58.11;101987.53;5061082;27;45488;-72
2022/05/08 04:31:22;;;;;;;;;42.00;35.75;;;;;16.42;58.54;101999.88;5078913;28;45217;-72
2022/05/08 04:33:47;;;;;;;;;48.50;39.75;;;;;16.40;58.37;101996.38;5063375;28;47213;-72
2022/05/08 04:36:14;;;;;;;;;46.00;38.75;;;;;16.38;58.17;101993.75;5061575;28;45344;-72
2022/05/08 04:38:39;;;;;;;;;46.50;38.25;;;;;16.36;58.33;102002.84;5062081;28;45429;-72
2022/05/08 04:41:05;;;;;;;;;48.25;40.50;;;;;16.30;58.43;102007.50;5062233;28;45320;-72
2022/05/08 04:43:30;;;;;;;;;47.25;39.00;;;;;16.18;58.83;102005.25;5061932;28;46205;-72
2022/05/08 04:45:55;;;;;;;;;50.25;41.00;;;;;16.13;58.75;102011.75;5069695;28;45503;-72
2022/05/08 04:48:21;;;;;;;;;48.00;38.25;;;;;16.07;58.98;102002.03;5082072;28;45463;-72
2022/05/08 04:50:46;;;;;;;;;46.00;38.00;;;;;16.11;59.08;102014.47;5078748;28;45656;-72
2022/05/08 04:53:12;;;;;;;;;51.50;42.75;;;;;16.14;58.98;102019.78;5077751;28;46071;-72
2022/05/08 04:55:37;;;;;;;;;47.00;39.25;;;;;16.07;59.06;102021.81;5081926;28;45426;-72
2022/05/08 04:58:02;;;;;;;;;47.50;39.25;;;;;16.07;59.30;102015.50;5063602;28;45229;-73
2022/05/08 05:00:28;;;;;;;;;47.00;39.25;;;;;16.05;59.21;102012.88;5061278;28;45374;-72
2022/05/08 05:02:53;;;;;;;;;45.50;38.00;;;;;16.05;59.24;102020.94;5067938;28;46002;-72
2022/05/08 05:05:19;;;;;;;;;49.50;40.75;;;;;16.02;59.38;102028.25;5073565;28;45369;-72
2022/05/08 05:07:44;;;;;;;;;46.00;38.75;;;;;16.03;59.42;102030.03;5076778;28;45520;-72
2022/05/08 05:10:11;;;;;;;;;47.25;39.00;;;;;16.01;59.42;102030.09;5077815;28;45702;-72
2022/05/08 05:12:37;;;;;;;;;49.50;39.00;;;;;16.06;59.31;102038.00;5063196;28;46437;-72
2022/05/08 05:15:04;;;;;;;;;48.25;41.00;;;;;16.06;59.22;102033.50;5079886;28;45645;-72
2022/05/08 05:17:29;;;;;;;;;49.00;39.25;;;;;16.05;59.30;102038.94;5081785;28;45256;-72
2022/05/08 05:19:55;;;;;;;;;49.75;39.50;;;;;16.10;59.31;102040.56;5081640;28;45398;-72
2022/05/08 05:22:21;;;;;;;;;44.75;38.25;;;;;16.09;59.43;102036.09;5068342;28;45350;-72
2022/05/08 05:24:46;;;;;;;;;44.00;37.75;;;;;16.14;59.13;102051.19;5064345;28;45410;-72
2022/05/08 05:27:12;;;;;;;;;49.00;39.75;;;;;16.12;59.56;102043.16;5074841;28;45414;-72
2022/05/08 05:29:37;;;;;;;;;47.00;39.00;;;;;16.12;59.44;102051.25;5071279;27;45420;-72
2022/05/08 05:32:03;;;;;;;;;48.25;40.00;;;;;16.07;59.27;102045.13;5076548;28;46826;-72
2022/05/08 05:34:28;;;;;;;;;44.00;37.75;;;;;16.03;59.45;102044.38;5071517;28;45320;-72
2022/05/08 05:36:54;;;;;;;;;50.75;42.75;;;;;16.08;59.46;102068.47;5061025;28;45262;-72
2022/05/08 05:39:19;;;;;;;;;48.00;38.25;;;;;16.02;59.64;102061.47;5061395;28;45424;-72
2022/05/08 05:41:45;;;;;;;;;47.50;37.50;;;;;15.97;59.73;102059.84;5061089;28;46400;-72
2022/05/08 05:44:11;;;;;;;;;50.25;42.25;;;;;16.00;59.51;102060.63;5059924;28;45747;-72
2022/05/08 05:49:20;;;;;;;;;49.50;39.25;;;;;16.01;59.79;102072.31;5067944;28;45327;-72
2022/05/08 05:51:46;;;;;;;;;47.50;39.75;;;;;16.04;59.82;102066.81;5063052;28;45334;-72
2022/05/08 05:54:11;;;;;;;;;51.00;40.00;;;;;16.08;59.94;102071.16;5069200;28;45357;-72
2022/05/08 05:56:37;;;;;;;;;47.75;40.25;;;;;16.12;59.73;102070.09;5065427;28;45712;-72
2022/05/08 05:59:03;;;;;;;;;49.50;41.50;;;;;16.09;59.81;102072.94;5068779;28;45395;-72
2022/05/08 06:01:28;;;;;;;;;46.00;38.50;;;;;16.02;59.65;102074.03;5071618;28;46262;-73
2022/05/08 06:03:53;;;;;;;;;52.75;42.50;;;;;16.00;59.93;102084.00;5066382;28;45467;-72
2022/05/08 06:06:19;;;;;;;;;49.00;39.00;;;;;15.96;60.27;102074.28;5072045;28;45310;-72
2022/05/08 06:08:44;;;;;;;;;50.25;41.50;;;;;15.99;60.20;102076.84;5070484;28;45334;-72
2022/05/08 06:11:10;;;;;;;;;46.25;38.25;;;;;15.96;60.17;102064.38;5072073;28;45954;-69
2022/05/08 06:13:35;;;;;;;;;48.50;40.25;;;;;16.07;60.02;102078.38;5070856;28;45352;-72
2022/05/08 06:16:00;;;;;;;;;47.50;39.75;;;;;16.13;59.98;102079.94;5060566;28;45334;-70
2022/05/08 06:18:26;;;;;;;;;45.50;38.25;;;;;16.15;59.71;102079.91;5060145;28;45318;-70
2022/05/08 06:20:52;;;;;;;;;51.00;42.75;;;;;16.19;60.01;102089.63;5059943;28;46180;-70
2022/05/08 06:23:18;;;;;;;;;48.00;39.75;;;;;16.16;59.60;102082.53;5064625;28;45864;-69
2022/05/08 06:25:43;;;;;;;;;48.75;41.00;;;;;16.06;60.52;102083.81;5066109;28;45567;-71
2022/05/08 06:28:09;;;;;;;;;51.75;42.25;;;;;16.10;59.93;102090.81;5060576;28;45237;-69
2022/05/08 06:30:35;;;;;;;;;50.75;41.00;;;;;16.06;60.12;102087.38;5064640;28;46950;-70
2022/05/08 06:33:00;;;;;;;;;54.00;42.00;;;;;16.07;60.11;102086.44;5073870;28;45227;-69
2022/05/08 06:35:25;;;;;;;;;49.00;40.00;;;;;16.08;60.06;102100.78;5068973;28;45146;-69
2022/05/08 06:37:51;;;;;;;;;51.50;40.25;;;;;16.08;60.32;102095.41;5078179;28;45512;-69
2022/05/08 06:40:17;;;;;;;;;46.75;39.25;;;;;16.10;60.09;102093.53;5065919;28;47064;-69
2022/05/08 06:42:43;;;;;;;;;46.25;39.25;;;;;16.06;60.22;102083.81;5069509;28;45322;-68
2022/05/08 06:45:09;;;;;;;;;44.25;38.00;;;;;16.13;60.38;102087.16;5071688;28;45519;-69
2022/05/08 06:47:34;;;;;;;;;46.75;39.50;;;;;16.09;60.39;102091.78;5062042;28;45229;-69
2022/05/08 06:50:00;;;;;;;;;51.25;41.25;;;;;16.11;60.10;102096.16;5078670;27;46948;-68
2022/05/08 06:52:25;;;;;;;;;46.75;38.50;;;;;16.05;60.12;102084.72;5078364;28;45290;-68
2022/05/08 06:54:50;;;;;;;;;48.75;38.00;;;;;16.15;60.23;102096.94;5060394;28;45349;-70
2022/05/08 06:57:16;;;;;;;;;52.00;41.50;;;;;16.14;60.09;102099.69;5065081;28;45401;-69
2022/05/08 07:02:25;;;;;;;;;47.50;38.50;;;;;16.05;60.41;102092.81;5062783;28;45398;-69
2022/05/08 07:04:50;;;;;;;;;45.50;38.50;;;;;16.14;60.32;102105.06;5082743;27;45527;-69
2022/05/08 07:07:16;;;;;;;;;47.25;40.00;;;;;16.16;60.35;102105.91;5059621;28;45369;-70
2022/05/08 07:09:41;;;;;;;;;49.00;40.25;;;;;16.15;60.65;102107.72;5073996;28;46118;-70
2022/05/08 07:12:07;;;;;;;;;41.50;35.50;;;;;16.14;60.43;102115.84;5064316;28;45479;-68
2022/05/08 07:14:33;;;;;;;;;46.00;38.50;;;;;16.16;60.34;102114.00;5065376;28;45639;-68
2022/05/08 07:16:58;;;;;;;;;48.25;40.75;;;;;16.16;60.47;102119.38;5073178;28;45364;-68
2022/05/08 07:19:24;;;;;;;;;45.50;35.50;;;;;16.14;60.30;102116.75;5068983;28;45714;-68
2022/05/08 07:21:50;;;;;;;;;39.75;33.50;;;;;16.03;60.41;102103.63;5063467;28;45177;-68
2022/05/08 07:24:15;;;;;;;;;39.50;33.25;;;;;15.99;60.42;102111.84;5059699;28;45224;-67
2022/05/08 07:26:41;;;;;;;;;47.75;38.75;;;;;16.01;60.84;102121.66;5059565;28;45146;-68
2022/05/08 07:29:07;;;;;;;;;46.00;38.50;;;;;15.89;60.72;102100.53;5064548;28;46100;-68
2022/05/08 07:31:32;;;;;;;;;43.00;34.75;;;;;15.99;60.80;102118.13;5071776;28;45358;-70
2022/05/08 07:36:42;;;;;;;;;45.25;38.50;;;;;16.04;60.34;102121.56;5058991;28;45515;-72
2022/05/08 07:39:08;;;;;;;;;47.25;38.25;;;;;16.02;60.81;102122.53;5057059;28;48438;-72
2022/05/08 07:41:33;;;;;;;;;45.50;37.25;;;;;16.05;60.74;102131.38;5070410;28;45362;-71
2022/05/08 07:43:59;;;;;;;;;44.25;37.50;;;;;16.08;60.69;102133.09;5059334;28;45427;-71
2022/05/08 07:46:25;;;;;;;;;38.50;34.25;;;;;16.02;60.77;102120.72;5059552;28;45459;-71
2022/05/08 07:48:51;;;;;;;;;46.00;36.50;;;;;16.04;60.73;102129.63;5059016;28;46677;-72
2022/05/08 07:51:16;;;;;;;;;47.75;39.25;;;;;16.03;60.78;102124.31;5059177;28;45369;-71
2022/05/08 07:53:41;;;;;;;;;46.25;36.25;;;;;16.05;60.66;102138.59;5059324;28;45908;-71
2022/05/08 07:56:07;;;;;;;;;50.50;40.50;;;;;16.03;60.71;102140.47;5066338;28;45410;-71
2022/05/08 07:58:32;;;;;;;;;40.50;35.00;;;;;15.97;61.03;102152.31;5071656;28;45664;-72
2022/05/08 08:00:59;;;;;;;;;44.50;37.75;;;;;15.91;60.99;102137.22;5065943;28;45351;-72
2022/05/08 08:03:27;;;;;;;;;44.00;37.50;;;;;15.96;61.24;102131.69;5073305;28;45418;-71
2022/05/08 08:05:53;;;;;;;;;45.00;37.00;;;;;16.01;60.92;102145.03;5062271;28;45473;-71
2022/05/08 08:08:23;;;;;;;;;48.75;39.25;;;;;15.96;60.77;102147.84;5072505;28;47014;-71
2022/05/08 08:10:53;;;;;;;;;45.50;38.00;;;;;16.02;61.13;102155.75;5069882;28;45600;-71
2022/05/08 08:13:22;;;;;;;;;47.25;39.00;;;;;16.08;61.04;102155.53;5067490;28;45461;-71
2022/05/08 08:15:48;;;;;;;;;44.50;36.00;;;;;16.10;61.09;102147.41;5063714;28;45555;-71
2022/05/08 08:18:13;;;;;;;;;44.75;38.25;;;;;15.98;61.10;102129.84;5065722;28;46299;-72
2022/05/08 08:20:39;;;;;;;;;42.25;35.00;;;;;16.15;61.05;102147.25;5060432;28;45555;-71
2022/05/08 08:23:05;;;;;;;;;44.75;35.25;;;;;16.18;61.10;102153.41;5061965;28;47144;-71
2022/05/08 08:25:30;;;;;;;;;47.50;38.00;;;;;16.21;60.79;102158.69;5065458;28;46021;-72
2022/05/08 08:27:56;;;;;;;;;36.25;31.00;;;;;16.17;60.87;102165.13;5066843;28;45579;-71
2022/05/08 08:30:21;;;;;;;;;46.25;38.25;;;;;16.12;60.76;102145.53;5067234;28;45355;-71
2022/05/08 08:32:47;;;;;;;;;48.25;39.25;;;;;16.05;61.12;102142.16;5065887;28;45796;-71
2022/05/08 08:35:13;;;;;;;;;46.00;39.00;;;;;16.08;61.20;102147.44;5065834;28;46199;-72
2022/05/08 08:37:38;;;;;;;;;46.50;39.50;;;;;16.06;61.46;102143.06;5071219;28;47533;-71
2022/05/08 08:40:04;;;;;;;;;50.00;40.00;;;;;16.08;61.20;102160.03;5074325;28;45661;-72
2022/05/08 08:42:31;;;;;;;;;45.75;37.25;;;;;16.10;61.36;102152.78;5063352;28;45554;-72
2022/05/08 08:47:52;;;;;;;;;47.50;37.50;;;;;16.10;61.17;102144.69;5068829;28;45333;-72
2022/05/08 08:50:18;;;;;;;;;45.25;37.25;;;;;16.21;61.38;102155.13;5070621;28;45742;-72
2022/05/08 08:52:45;;;;;;;;;50.75;37.75;;;;;16.25;61.18;102157.66;5063335;28;45622;-71
2022/05/08 08:55:11;;;;;;;;;47.50;40.00;;;;;16.29;61.15;102158.44;5070688;28;45266;-71
2022/05/08 08:57:37;;;;;;;;;48.50;38.75;;;;;16.34;61.03;102156.47;5069350;28;45817;-72
2022/05/08 09:00:07;;;;;;;;;45.25;35.75;;;;;16.39;60.81;102153.59;5065793;28;45398;-71
2022/05/08 09:02:34;;;;;;;;;45.50;37.25;;;;;16.38;60.72;102151.88;5061856;28;45473;-72
2022/05/08 09:05:04;;;;;;;;;47.00;38.25;;;;;16.43;60.35;102150.75;5067680;28;45423;-72
2022/05/08 09:07:38;;;;;;;;;51.50;42.00;;;;;16.52;60.49;102149.56;5066976;28;45848;-72
2022/05/08 09:10:07;;;;;;;;;46.50;38.00;;;;;16.53;60.50;102151.31;5060913;28;45488;-71
2022/05/08 09:12:32;;;;;;;;;48.25;36.00;;;;;16.46;60.95;102150.66;5058577;28;45422;-72
2022/05/08 09:14:57;;;;;;;;;49.00;39.75;;;;;16.43;60.69;102147.19;5067590;28;45832;-73
2022/05/08 09:17:23;;;;;;;;;44.00;35.25;;;;;16.43;60.88;102139.09;5067820;28;45507;-72
2022/05/08 09:19:48;;;;;;;;;51.75;40.25;;;;;16.51;60.59;102155.03;5062958;28;45504;-71
2022/05/08 09:22:17;;;;;;;;;49.00;39.00;;;;;16.49;60.59;102155.06;5071053;27;46039;-71
2022/05/08 09:24:52;;;;;;;;;46.00;38.00;;;;;16.43;60.59;102147.19;5063910;28;46292;-72
2022/05/08 09:27:18;;;;;;;;;50.75;42.00;;;;;16.54;60.69;102161.19;5071525;28;45961;-72
2022/05/08 09:29:44;;;;;;;;;37.25;31.25;;;;;16.47;60.94;102149.75;5069100;28;45757;-72
2022/05/08 09:32:34;;;;;;;;;49.75;39.25;;;;;16.59;60.87;102150.22;5062839;28;45481;-71
2022/05/08 09:35:01;;;;;;;;;47.75;38.50;;;;;16.56;60.43;102140.44;5067576;28;45433;-72
2022/05/08 09:37:27;;;;;;;;;48.00;39.00;;;;;16.64;60.65;102153.66;5061736;27;46143;-72
2022/05/08 09:40:46;;;;;;;;;49.75;42.00;;;;;16.73;60.74;102155.16;5062046;28;45724;-72
2022/05/08 09:43:30;;;;;;;;;48.25;40.75;;;;;16.75;60.35;102155.97;5028284;28;46225;-74
2022/05/08 09:45:57;;;;;;;;;52.25;40.75;;;;;16.71;60.28;102149.81;5022476;28;45470;-73
2022/05/08 09:48:25;;;;;;;;;44.75;36.00;;;;;16.78;60.61;102155.84;5045898;28;46407;-73
2022/05/08 09:50:52;;;;;;;;;45.00;36.00;;;;;16.81;60.37;102153.91;5062219;28;45672;-72
2022/05/08 09:53:18;;;;;;;;;44.50;37.00;;;;;16.80;60.35;102146.75;5068935;28;46625;-73
2022/05/08 09:55:45;;;;;;;;;47.75;38.75;;;;;16.84;60.33;102152.94;5058446;28;46138;-74
2022/05/08 09:58:10;;;;;;;;;51.75;43.00;;;;;16.87;60.39;102150.16;5060631;28;45784;-74
2022/05/08 10:00:39;;;;;;;;;49.50;40.00;;;;;16.83;60.06;102137.69;5063669;27;45512;-73
2022/05/08 10:03:06;;;;;;;;;49.25;39.25;;;;;16.88;59.73;102143.81;5056215;28;45601;-73
2022/05/08 10:05:34;;;;;;;;;50.50;39.75;;;;;16.94;60.38;102140.00;5074688;28;45637;-72
2022/05/08 10:08:02;;;;;;;;;51.25;40.75;;;;;16.98;59.87;102144.38;5062054;28;47214;-73
2022/05/08 10:15:56;;;;;;;;;47.75;39.00;;;;;17.02;60.14;102130.72;5056522;28;45805;-73
2022/05/08 10:18:53;;;;;;;;;50.50;41.50;;;;;17.15;60.14;102144.59;5055775;28;45998;-74
2022/05/08 10:21:19;;;;;;;;;49.50;39.75;;;;;17.22;59.55;102140.75;5066555;28;45354;-74
2022/05/08 10:23:45;;;;;;;;;51.50;40.75;;;;;17.26;59.58;102132.53;5057643;28;45410;-74
2022/05/08 10:26:18;;;;;;;;;48.75;40.50;;;;;17.28;59.64;102133.38;5056336;28;45363;-75
2022/05/08 10:29:15;;;;;;;;;49.00;39.75;;;;;17.29;59.63;102140.50;5070106;28;47072;-74
2022/05/08 10:31:48;;;;;;;;;49.25;38.50;;;;;17.35;59.61;102140.28;5070291;28;45867;-73
2022/05/08 10:34:16;;;;;;;;;49.00;40.25;;;;;17.40;59.49;102135.59;5061759;28;45524;-75
2022/05/08 10:37:13;;;;;;;;;49.50;41.50;;;;;17.40;59.08;102125.66;5069455;28;45582;-73
2022/05/08 10:39:46;;;;;;;;;48.75;41.00;;;;;17.47;59.74;102129.00;5039286;28;46240;-73
2022/05/08 10:42:23;;;;;;;;;50.75;41.50;;;;;17.54;59.42;102129.63;5072586;27;45586;-73
2022/05/08 10:44:49;;;;;;;;;50.25;40.00;;;;;17.60;59.37;102129.41;5075930;28;45935;-73
2022/05/08 10:47:33;;;;;;;;;50.25;41.00;;;;;17.69;58.94;102126.34;5071225;28;45508;-72
2022/05/08 10:50:09;;;;;;;;;50.00;41.75;;;;;17.70;59.06;102113.72;5074762;28;46923;-72
2022/05/08 10:52:45;;;;;;;;;50.75;40.50;;;;;17.80;58.89;102130.44;5063513;28;45895;-73
2022/05/08 10:55:16;;;;;;;;;51.50;42.25;;;;;17.79;58.93;102107.91;5072532;28;45631;-73
2022/05/08 10:57:46;;;;;;;;;50.75;42.25;;;;;17.95;58.81;102127.13;5062521;28;46047;-73
2022/05/08 11:00:17;;;;;;;;;51.50;41.75;;;;;17.99;58.49;102120.63;5071202;27;46416;-73
2022/05/08 11:02:43;;;;;;;;;48.50;39.75;;;;;18.04;58.32;102118.66;5058787;28;45895;-73
2022/05/08 11:05:21;;;;;;;;;52.75;43.50;;;;;18.09;57.72;102116.63;5063268;28;45533;-75
2022/05/08 11:07:50;;;;;;;;;51.50;42.25;;;;;18.14;58.06;102120.00;5064434;28;45467;-73
2022/05/08 11:10:18;;;;;;;;;51.25;40.00;;;;;18.17;57.55;102110.88;5060420;27;46853;-68
2022/05/08 11:12:59;;;;;;;;;51.50;41.75;;;;;18.21;57.95;102108.91;5066388;28;45690;-66
2022/05/08 11:15:51;;;;;;;;;51.25;41.50;;;;;18.17;57.52;102102.78;5062447;28;45705;-67
2022/05/08 11:18:22;;;;;;;;;47.50;39.50;;;;;18.24;57.64;102104.28;5051259;28;45596;-67
2022/05/08 11:20:59;;;;;;;;;55.75;44.75;;;;;18.35;57.37;102116.47;5056240;28;45517;-66
2022/05/08 11:23:35;;;;;;;;;55.50;43.75;;;;;18.41;58.17;102119.78;5061973;28;45934;-66
2022/05/08 11:26:09;;;;;;;;;50.75;40.50;;;;;18.50;57.42;102110.38;5070644;28;45405;-66
2022/05/08 11:28:35;;;;;;;;;51.50;42.50;;;;;18.54;57.42;102111.13;5062171;28;45348;-66
2022/05/08 11:31:15;;;;;;;;;52.50;43.50;;;;;18.56;57.14;102102.00;5073058;28;45422;-67
2022/05/08 11:36:28;;;;;;;;;46.50;40.75;;;;;18.65;57.08;102098.00;5059324;28;45464;-65
2022/05/08 11:38:55;;;;;;;;;43.25;36.50;;;;;18.64;56.75;102086.31;5059380;28;45457;-65
2022/05/08 11:41:28;;;;;;;;;47.00;38.50;;;;;18.75;56.68;102091.22;5059240;28;45919;-67
2022/05/08 11:43:55;;;;;;;;;51.25;41.50;;;;;18.75;56.43;102091.22;5077641;28;45468;-65